createdAt,value
2017-04-01T00:00:33.844Z,12.64
2017-04-01T00:01:14.322Z,12.63
2017-04-01T00:01:54.827Z,12.63
2017-04-01T00:02:35.335Z,12.77
2017-04-01T00:03:15.775Z,12.78
2017-04-01T00:03:56.262Z,12.79
2017-04-01T00:04:36.745Z,12.77
2017-04-01T00:05:17.230Z,12.77
2017-04-01T00:05:57.736Z,12.81
2017-04-01T00:06:38.203Z,12.79
2017-04-01T00:07:18.702Z,12.78
2017-04-01T00:07:59.277Z,12.71
2017-04-01T00:08:39.651Z,12.74
2017-04-01T00:09:20.137Z,12.69
2017-04-01T00:10:00.640Z,12.67
2017-04-01T00:10:41.122Z,12.92
2017-04-01T00:11:21.591Z,12.88
2017-04-01T00:12:02.078Z,13.04
2017-04-01T00:12:42.593Z,13.03
2017-04-01T00:13:23.041Z,12.97
2017-04-01T00:14:03.480Z,12.82
2017-04-01T00:14:43.962Z,12.52
2017-04-01T00:15:24.446Z,12.41
2017-04-01T00:16:04.923Z,12.39
2017-04-01T00:16:45.382Z,12.23
2017-04-01T00:17:25.805Z,12.19
2017-04-01T00:19:13.281Z,12.15
2017-04-01T00:19:53.750Z,12.08
2017-04-01T00:20:34.294Z,12.16
2017-04-01T00:21:14.793Z,12.21
2017-04-01T00:21:55.275Z,12.16
2017-04-01T00:22:35.730Z,12.05
2017-04-01T00:24:48.487Z,12.04
2017-04-01T00:25:29.002Z,12.02
2017-04-01T00:26:09.505Z,12.21
2017-04-01T00:26:49.995Z,12.44
2017-04-01T00:27:30.502Z,12.51
2017-04-01T00:28:10.980Z,12.57
2017-04-01T00:28:51.472Z,12.62
2017-04-01T00:29:31.938Z,12.52
2017-04-01T00:30:12.317Z,12.67
2017-04-01T00:30:52.807Z,12.64
2017-04-01T00:31:33.229Z,12.44
2017-04-01T00:32:13.676Z,12.26
2017-04-01T00:32:54.146Z,12.06
2017-04-01T00:33:34.643Z,12.02
2017-04-01T00:34:15.061Z,11.82
2017-04-01T00:34:55.512Z,11.83
2017-04-01T00:35:35.983Z,11.94
2017-04-01T00:36:16.465Z,12.06
2017-04-01T00:36:56.897Z,12.08
2017-04-01T00:37:37.344Z,12.3
2017-04-01T00:38:17.778Z,12.48
2017-04-01T00:38:58.223Z,12.49
2017-04-01T00:39:38.650Z,12.52
2017-04-01T00:41:51.344Z,12.75
2017-04-01T00:42:31.802Z,12.81
2017-04-01T00:43:12.292Z,12.75
2017-04-01T00:43:52.796Z,12.59
2017-04-01T00:44:33.285Z,12.64
2017-04-01T00:45:13.787Z,12.62
2017-04-01T00:45:54.288Z,12.45
2017-04-01T00:46:34.747Z,12.44
2017-04-01T00:47:15.267Z,12.49
2017-04-01T00:47:55.726Z,12.56
2017-04-01T00:48:36.202Z,12.44
2017-04-01T00:49:16.700Z,12.15
2017-04-01T00:49:57.171Z,12.06
2017-04-01T00:50:37.665Z,11.94
2017-04-01T00:51:18.131Z,11.85
2017-04-01T00:51:58.601Z,11.8
2017-04-01T00:52:39.080Z,11.71
2017-04-01T00:53:19.568Z,11.74
2017-04-01T00:54:00.014Z,11.71
2017-04-01T00:54:40.506Z,11.89
2017-04-01T00:55:21.005Z,11.85
2017-04-01T00:56:01.432Z,11.8
2017-04-01T00:56:41.906Z,11.93
2017-04-01T00:58:39.574Z,12.13
2017-04-01T00:59:20.034Z,12.27
2017-04-01T01:00:00.498Z,12.37
2017-04-01T01:00:41.006Z,12.46
2017-04-01T01:01:21.523Z,12.24
2017-04-01T01:02:01.967Z,12.08
2017-04-01T01:02:42.454Z,11.78
2017-04-01T01:03:22.930Z,11.72
2017-04-01T01:04:03.406Z,11.53
2017-04-01T01:04:44.009Z,11.44
2017-04-01T01:05:24.409Z,11.53
2017-04-01T01:06:04.869Z,11.52
2017-04-01T01:06:45.294Z,11.56
2017-04-01T01:07:25.777Z,11.56
2017-04-01T01:08:06.220Z,11.83
2017-04-01T01:08:46.717Z,11.89
2017-04-01T01:10:39.259Z,12.05
2017-04-01T01:11:19.763Z,12.05
2017-04-01T01:12:00.239Z,12.13
2017-04-01T01:13:52.722Z,11.68
2017-04-01T01:14:33.211Z,11.56
2017-04-01T01:15:13.711Z,11.5
2017-04-01T01:15:54.188Z,11.47
2017-04-01T01:16:34.694Z,11.47
2017-04-01T01:17:15.191Z,11.47
2017-04-01T01:17:55.698Z,11.49
2017-04-01T01:18:36.157Z,11.47
2017-04-01T01:19:16.655Z,11.5
2017-04-01T01:19:57.133Z,11.54
2017-04-01T01:20:37.575Z,11.62
2017-04-01T01:22:25.083Z,11.72
2017-04-01T01:23:05.522Z,11.87
2017-04-01T01:23:45.962Z,11.64
2017-04-01T01:24:26.429Z,11.53
2017-04-01T01:25:06.880Z,11.47
2017-04-01T01:25:47.360Z,11.41
2017-04-01T01:26:27.807Z,11.46
2017-04-01T01:27:08.231Z,11.39
2017-04-01T01:27:48.670Z,11.47
2017-04-01T01:29:26.053Z,11.43
2017-04-01T01:30:06.507Z,11.5
2017-04-01T01:30:47.005Z,11.56
2017-04-01T01:31:27.522Z,11.74
2017-04-01T01:32:08.024Z,11.67
2017-04-01T01:32:48.531Z,11.44
2017-04-01T01:33:29.001Z,11.29
2017-04-01T01:34:09.491Z,11.14
2017-04-01T01:34:49.982Z,11.07
2017-04-01T01:35:30.476Z,10.95
2017-04-01T01:36:10.981Z,10.96
2017-04-01T01:36:51.461Z,10.92
2017-04-01T01:37:31.926Z,10.95
2017-04-01T01:38:12.402Z,10.86
2017-04-01T01:38:52.905Z,10.98
2017-04-01T01:39:33.301Z,11.06
2017-04-01T01:40:13.726Z,11.06
2017-04-01T01:40:54.168Z,11.03
2017-04-01T01:41:34.610Z,11.09
2017-04-01T01:42:15.056Z,11.07
2017-04-01T01:42:55.499Z,11.1
2017-04-01T01:43:35.946Z,11.09
2017-04-01T01:44:16.399Z,11.13
2017-04-01T01:46:14.022Z,11.07
2017-04-01T01:46:54.496Z,11.06
2017-04-01T01:47:34.995Z,11.01
2017-04-01T01:48:15.497Z,11.16
2017-04-01T01:48:55.940Z,11.09
2017-04-01T01:49:36.406Z,11.32
2017-04-01T01:50:16.914Z,11.39
2017-04-01T01:50:57.359Z,11.35
2017-04-01T01:52:44.901Z,11.02
2017-04-01T01:53:25.277Z,10.92
2017-04-01T01:54:05.742Z,10.96
2017-04-01T01:54:46.211Z,10.98
2017-04-01T01:55:26.672Z,10.98
2017-04-01T01:57:04.054Z,10.99
2017-04-01T01:57:44.450Z,10.86
2017-04-01T01:58:24.901Z,10.95
2017-04-01T01:59:05.378Z,10.98
2017-04-01T01:59:45.806Z,11.03
2017-04-01T02:00:26.266Z,10.89
2017-04-01T02:01:06.700Z,10.89
2017-04-01T02:01:47.144Z,10.77
2017-04-01T02:03:59.855Z,10.66
2017-04-01T02:04:40.319Z,10.7
2017-04-01T02:05:20.831Z,10.62
2017-04-01T02:06:01.305Z,10.58
2017-04-01T02:06:41.777Z,10.65
2017-04-01T02:07:22.247Z,10.58
2017-04-01T02:08:02.721Z,10.59
2017-04-01T02:08:43.168Z,10.6
2017-04-01T02:09:23.628Z,10.58
2017-04-01T02:10:04.045Z,10.6
2017-04-01T02:10:44.539Z,10.58
2017-04-01T02:11:24.956Z,10.51
2017-04-01T02:12:05.419Z,10.55
2017-04-01T02:12:45.876Z,10.59
2017-04-01T02:13:26.317Z,10.47
2017-04-01T02:14:06.788Z,10.59
2017-04-01T02:16:19.521Z,10.47
2017-04-01T02:16:59.938Z,10.46
2017-04-01T02:17:40.408Z,10.44
2017-04-01T02:18:20.930Z,10.44
2017-04-01T02:19:01.408Z,10.77
2017-04-01T02:19:41.913Z,10.77
2017-04-01T02:20:22.378Z,10.68
2017-04-01T02:21:02.867Z,10.66
2017-04-01T02:21:43.383Z,10.71
2017-04-01T02:22:23.850Z,10.65
2017-04-01T02:23:04.378Z,10.76
2017-04-01T02:23:44.864Z,10.88
2017-04-01T02:24:25.345Z,10.92
2017-04-01T02:25:05.821Z,10.96
2017-04-01T02:25:46.305Z,11.09
2017-04-01T02:26:26.809Z,11.14
2017-04-01T02:27:07.276Z,11.24
2017-04-01T02:27:47.750Z,11.34
2017-04-01T02:28:28.234Z,11.38
2017-04-01T02:29:08.723Z,11.5
2017-04-01T02:29:49.216Z,11.39
2017-04-01T02:30:29.665Z,11.1
2017-04-01T02:31:10.123Z,10.91
2017-04-01T02:31:50.572Z,10.84
2017-04-01T02:32:31.041Z,10.77
2017-04-01T02:33:11.547Z,10.68
2017-04-01T02:33:51.973Z,10.62
2017-04-01T02:34:32.423Z,10.58
2017-04-01T02:35:12.893Z,10.55
2017-04-01T02:35:53.326Z,10.63
2017-04-01T02:36:33.776Z,10.7
2017-04-01T02:37:14.187Z,10.65
2017-04-01T02:37:54.637Z,10.7
2017-04-01T02:39:52.289Z,10.63
2017-04-01T02:40:32.758Z,10.6
2017-04-01T02:41:13.218Z,10.55
2017-04-01T02:41:53.730Z,10.47
2017-04-01T02:42:34.215Z,10.43
2017-04-01T02:43:14.696Z,10.39
2017-04-01T02:43:55.179Z,10.44
2017-04-01T02:44:35.657Z,10.44
2017-04-01T02:45:16.135Z,10.4
2017-04-01T02:45:56.676Z,10.34
2017-04-01T02:46:37.163Z,10.42
2017-04-01T02:47:17.633Z,10.4
2017-04-01T02:47:58.109Z,10.39
2017-04-01T02:48:38.578Z,10.43
2017-04-01T02:49:19.074Z,10.47
2017-04-01T02:49:59.630Z,10.47
2017-04-01T02:50:40.038Z,10.52
2017-04-01T02:51:20.451Z,10.46
2017-04-01T02:52:00.914Z,10.46
2017-04-01T02:52:41.332Z,10.51
2017-04-01T02:53:21.788Z,10.55
2017-04-01T02:54:02.246Z,10.78
2017-04-01T02:54:42.701Z,10.76
2017-04-01T02:55:23.177Z,10.7
2017-04-01T02:57:35.945Z,10.55
2017-04-01T02:58:16.436Z,10.51
2017-04-01T02:58:56.882Z,10.52
2017-04-01T02:59:37.371Z,10.42
2017-04-01T03:00:17.851Z,10.37
2017-04-01T03:00:58.341Z,10.32
2017-04-01T03:01:38.838Z,10.28
2017-04-01T03:02:19.314Z,10.33
2017-04-01T03:02:59.750Z,10.24
2017-04-01T03:03:40.239Z,10.19
2017-04-01T03:05:37.906Z,10.34
2017-04-01T03:06:18.350Z,10.3
2017-04-01T03:06:58.822Z,10.36
2017-04-01T03:07:39.329Z,10.37
2017-04-01T03:08:19.818Z,10.3
2017-04-01T03:09:00.294Z,10.46
2017-04-01T03:09:40.783Z,10.51
2017-04-01T03:10:21.374Z,10.46
2017-04-01T03:11:01.861Z,10.43
2017-04-01T03:11:42.328Z,10.52
2017-04-01T03:12:22.828Z,10.59
2017-04-01T03:13:03.400Z,10.71
2017-04-01T03:13:43.863Z,10.76
2017-04-01T03:14:24.345Z,10.96
2017-04-01T03:15:04.927Z,10.95
2017-04-01T03:15:45.425Z,10.86
2017-04-01T03:16:25.927Z,10.91
2017-04-01T03:17:06.410Z,10.7
2017-04-01T03:17:46.900Z,10.73
2017-04-01T03:18:27.415Z,10.55
2017-04-01T03:19:07.959Z,10.4
2017-04-01T03:19:48.445Z,10.42
2017-04-01T03:20:28.935Z,10.44
2017-04-01T03:21:09.415Z,10.36
2017-04-01T03:21:49.902Z,10.51
2017-04-01T03:22:30.366Z,10.58
2017-04-01T03:23:10.890Z,10.52
2017-04-01T03:25:03.503Z,10.39
2017-04-01T03:25:43.946Z,10.39
2017-04-01T03:26:24.422Z,10.43
2017-04-01T03:27:04.911Z,10.32
2017-04-01T03:27:45.386Z,10.39
2017-04-01T03:28:25.884Z,10.34
2017-04-01T03:29:06.350Z,10.3
2017-04-01T03:29:46.820Z,10.32
2017-04-01T03:30:27.277Z,10.36
2017-04-01T03:31:07.767Z,10.28
2017-04-01T03:31:48.246Z,10.43
2017-04-01T03:32:28.763Z,10.37
2017-04-01T03:34:06.107Z,10.3
2017-04-01T03:34:46.597Z,10.25
2017-04-01T03:35:27.082Z,10.21
2017-04-01T03:36:07.575Z,10.22
2017-04-01T03:36:48.017Z,10.21
2017-04-01T03:37:28.480Z,10.09
2017-04-01T03:38:08.951Z,10.22
2017-04-01T03:39:56.476Z,10.22
2017-04-01T03:40:36.907Z,10.18
2017-04-01T03:41:17.398Z,10.14
2017-04-01T03:41:57.856Z,10.1
2017-04-01T03:42:38.330Z,10.19
2017-04-01T03:43:18.828Z,10.17
2017-04-01T03:43:59.303Z,10.25
2017-04-01T03:45:36.645Z,10.47
2017-04-01T03:46:17.136Z,10.51
2017-04-01T03:46:57.603Z,10.56
2017-04-01T03:47:38.108Z,10.62
2017-04-01T03:48:18.551Z,10.73
2017-04-01T03:48:59.004Z,10.66
2017-04-01T03:49:39.474Z,10.68
2017-04-01T03:50:19.927Z,10.66
2017-04-01T03:51:00.389Z,10.6
2017-04-01T03:52:58.041Z,10.68
2017-04-01T03:53:38.465Z,10.77
2017-04-01T03:54:18.941Z,10.83
2017-04-01T03:54:59.409Z,10.84
2017-04-01T03:55:39.881Z,10.78
2017-04-01T03:56:20.614Z,10.71
2017-04-01T03:57:01.098Z,10.74
2017-04-01T03:57:41.582Z,10.47
2017-04-01T03:58:22.041Z,10.46
2017-04-01T03:59:02.535Z,10.51
2017-04-01T03:59:43.050Z,10.44
2017-04-01T04:00:23.488Z,10.59
2017-04-01T04:01:03.916Z,10.65
2017-04-01T04:02:51.402Z,10.95
2017-04-01T04:03:31.872Z,11.01
2017-04-01T04:04:12.341Z,11.17
2017-04-01T04:04:52.818Z,11.21
2017-04-01T04:05:33.303Z,11.25
2017-04-01T04:06:13.799Z,11.2
2017-04-01T04:06:54.362Z,11.1
2017-04-01T04:07:34.841Z,10.91
2017-04-01T04:08:15.292Z,10.8
2017-04-01T04:08:55.746Z,10.88
2017-04-01T04:10:53.374Z,11.01
2017-04-01T04:11:33.916Z,11.02
2017-04-01T04:12:14.343Z,10.96
2017-04-01T04:12:54.854Z,10.94
2017-04-01T04:13:35.552Z,11.06
2017-04-01T04:14:16.027Z,10.96
2017-04-01T04:14:56.492Z,10.98
2017-04-01T04:15:36.998Z,11.06
2017-04-01T04:16:17.484Z,11.1
2017-04-01T04:16:57.933Z,10.99
2017-04-01T04:17:38.414Z,10.95
2017-04-01T04:18:18.854Z,10.86
2017-04-01T04:18:59.316Z,10.92
2017-04-01T04:19:39.790Z,10.89
2017-04-01T04:20:20.236Z,10.92
2017-04-01T04:22:12.763Z,10.51
2017-04-01T04:22:53.228Z,10.46
2017-04-01T04:23:33.722Z,10.37
2017-04-01T04:24:14.196Z,10.43
2017-04-01T04:24:54.640Z,10.37
2017-04-01T04:25:35.115Z,10.36
2017-04-01T04:26:15.720Z,10.19
2017-04-01T04:26:56.207Z,10.3
2017-04-01T04:27:36.728Z,10.32
2017-04-01T04:28:17.155Z,10.34
2017-04-01T04:28:57.614Z,10.42
2017-04-01T04:29:38.103Z,10.42
2017-04-01T04:30:18.616Z,10.36
2017-04-01T04:30:59.064Z,10.43
2017-04-01T04:31:39.549Z,10.43
2017-04-01T04:33:37.211Z,10.44
2017-04-01T04:34:17.672Z,10.51
2017-04-01T04:34:58.183Z,10.65
2017-04-01T04:35:38.677Z,10.86
2017-04-01T04:36:19.181Z,11.06
2017-04-01T04:36:59.632Z,11.09
2017-04-01T04:37:40.072Z,11.03
2017-04-01T04:38:20.549Z,11.2
2017-04-01T04:39:01.001Z,11.14
2017-04-01T04:39:41.475Z,11.03
2017-04-01T04:40:21.907Z,11.01
2017-04-01T04:41:02.374Z,11.02
2017-04-01T04:41:42.777Z,11.03
2017-04-01T04:43:30.267Z,10.56
2017-04-01T04:44:10.737Z,10.44
2017-04-01T04:44:51.247Z,10.39
2017-04-01T04:45:31.679Z,10.33
2017-04-01T04:46:12.108Z,10.44
2017-04-01T04:48:04.616Z,10.32
2017-04-01T04:48:45.124Z,10.36
2017-04-01T04:49:25.590Z,10.33
2017-04-01T04:50:06.083Z,10.22
2017-04-01T04:50:46.565Z,10.15
2017-04-01T04:51:27.050Z,10.17
2017-04-01T04:52:07.509Z,10.17
2017-04-01T04:52:47.933Z,10.25
2017-04-01T04:53:28.391Z,10.34
2017-04-01T04:54:08.888Z,10.1
2017-04-01T04:54:49.344Z,10.17
2017-04-01T04:55:29.794Z,10.09
2017-04-01T04:56:10.265Z,10.3
2017-04-01T04:58:23.029Z,10.44
2017-04-01T04:59:03.502Z,10.47
2017-04-01T04:59:44.006Z,10.53
2017-04-01T05:00:24.465Z,10.65
2017-04-01T05:01:04.949Z,10.86
2017-04-01T05:01:45.436Z,11.06
2017-04-01T05:02:25.891Z,11.28
2017-04-01T05:03:06.362Z,11.36
2017-04-01T05:04:53.818Z,11.53
2017-04-01T05:05:34.302Z,11.65
2017-04-01T05:06:14.766Z,11.77
2017-04-01T05:06:55.260Z,11.8
2017-04-01T05:07:35.701Z,11.78
2017-04-01T05:08:16.142Z,11.9
2017-04-01T05:08:56.579Z,11.86
2017-04-01T05:10:44.072Z,11.96
2017-04-01T05:11:24.551Z,11.99
2017-04-01T05:12:05.030Z,11.94
2017-04-01T05:12:45.648Z,11.94
2017-04-01T05:13:26.143Z,11.89
2017-04-01T05:14:06.636Z,11.96
2017-04-01T05:14:47.118Z,11.9
2017-04-01T05:15:27.593Z,11.93
2017-04-01T05:17:25.255Z,11.99
2017-04-01T05:18:05.640Z,12.02
2017-04-01T05:18:46.138Z,12.08
2017-04-01T05:19:26.627Z,12.05
2017-04-01T05:20:07.090Z,12.01
2017-04-01T05:20:47.544Z,12.04
2017-04-01T05:21:27.987Z,12.12
2017-04-01T05:22:08.429Z,12.09
2017-04-01T05:22:48.921Z,12.04
2017-04-01T05:23:29.390Z,12.13
2017-04-01T05:24:09.849Z,12.05
2017-04-01T05:26:02.402Z,12.06
2017-04-01T05:26:42.874Z,12.04
2017-04-01T05:27:23.345Z,12.05
2017-04-01T05:28:03.820Z,12.12
2017-04-01T05:28:44.330Z,12.05
2017-04-01T05:29:24.792Z,12.11
2017-04-01T05:30:05.312Z,12.06
2017-04-01T05:30:45.789Z,12.05
2017-04-01T05:31:26.279Z,12.12
2017-04-01T05:32:06.788Z,12.11
2017-04-01T05:32:47.277Z,12.13
2017-04-01T05:33:27.795Z,12.16
2017-04-01T05:34:08.260Z,12.13
2017-04-01T05:34:48.758Z,12.19
2017-04-01T05:35:29.242Z,12.15
2017-04-01T05:36:09.731Z,12.09
2017-04-01T05:36:50.197Z,12.16
2017-04-01T05:37:30.682Z,12.06
2017-04-01T05:38:11.157Z,12.12
2017-04-01T05:38:51.672Z,12.12
2017-04-01T05:39:32.187Z,12.16
2017-04-01T05:40:12.647Z,12.15
2017-04-01T05:40:53.140Z,12.16
2017-04-01T05:41:33.655Z,12.15
2017-04-01T05:42:14.109Z,12.21
2017-04-01T05:42:54.612Z,12.2
2017-04-01T05:43:35.021Z,12.24
2017-04-01T05:44:15.464Z,12.16
2017-04-01T05:46:02.986Z,12.26
2017-04-01T05:46:43.422Z,12.27
2017-04-01T05:47:23.893Z,12.24
2017-04-01T05:48:04.404Z,12.3
2017-04-01T05:48:44.864Z,12.24
2017-04-01T05:49:25.336Z,12.29
2017-04-01T05:50:05.823Z,12.27
2017-04-01T05:50:46.301Z,12.24
2017-04-01T05:51:26.797Z,12.21
2017-04-01T05:52:07.242Z,12.27
2017-04-01T05:52:47.683Z,12.34
2017-04-01T05:53:28.163Z,12.21
2017-04-01T05:54:08.640Z,12.3
2017-04-01T05:54:49.084Z,12.39
2017-04-01T05:55:29.520Z,12.31
2017-04-01T05:56:09.942Z,12.37
2017-04-01T05:58:22.708Z,12.41
2017-04-01T05:59:03.148Z,12.45
2017-04-01T05:59:43.648Z,12.46
2017-04-01T06:00:24.136Z,12.44
2017-04-01T06:01:04.634Z,12.49
2017-04-01T06:01:45.160Z,12.45
2017-04-01T06:02:25.593Z,12.54
2017-04-01T06:03:06.102Z,12.52
2017-04-01T06:03:46.561Z,12.62
2017-04-01T06:04:27.042Z,12.56
2017-04-01T06:05:07.508Z,12.6
2017-04-01T06:05:47.957Z,12.52
2017-04-01T06:06:28.447Z,12.56
2017-04-01T06:07:08.915Z,12.63
2017-04-01T06:07:49.373Z,12.66
2017-04-01T06:08:29.830Z,12.69
2017-04-01T06:10:42.521Z,12.7
2017-04-01T06:11:22.981Z,12.74
2017-04-01T06:12:03.482Z,12.7
2017-04-01T06:12:43.955Z,12.69
2017-04-01T06:13:24.430Z,12.74
2017-04-01T06:14:04.913Z,12.69
2017-04-01T06:14:45.433Z,12.74
2017-04-01T06:15:25.882Z,12.78
2017-04-01T06:16:06.382Z,12.75
2017-04-01T06:16:46.862Z,12.81
2017-04-01T06:17:27.291Z,12.75
2017-04-01T06:18:07.734Z,12.71
2017-04-01T06:19:45.143Z,12.85
2017-04-01T06:20:25.503Z,12.82
2017-04-01T06:21:05.987Z,12.79
2017-04-01T06:21:47.132Z,12.74
2017-04-01T06:22:27.590Z,12.88
2017-04-01T06:23:08.072Z,12.78
2017-04-01T06:23:48.619Z,12.77
2017-04-01T06:24:29.062Z,12.77
2017-04-01T06:25:09.545Z,12.81
2017-04-01T06:25:50.023Z,12.84
2017-04-01T06:26:30.505Z,12.87
2017-04-01T06:27:10.991Z,12.71
2017-04-01T06:27:51.414Z,12.74
2017-04-01T06:28:31.883Z,12.75
2017-04-01T06:30:09.245Z,12.87
2017-04-01T06:30:49.710Z,12.71
2017-04-01T06:31:30.208Z,12.84
2017-04-01T06:32:10.691Z,12.75
2017-04-01T06:32:51.147Z,12.93
2017-04-01T06:33:31.641Z,12.81
2017-04-01T06:34:12.124Z,12.88
2017-04-01T06:34:52.590Z,12.88
2017-04-01T06:35:33.094Z,12.99
2017-04-01T06:36:13.575Z,12.92
2017-04-01T06:36:54.040Z,12.92
2017-04-01T06:37:34.542Z,12.74
2017-04-01T06:38:15.017Z,12.79
2017-04-01T06:38:55.576Z,12.89
2017-04-01T06:39:36.054Z,13
2017-04-01T06:40:16.536Z,13.12
2017-04-01T06:40:57.011Z,13
2017-04-01T06:41:37.508Z,13
2017-04-01T06:42:18.005Z,13.03
2017-04-01T06:42:58.451Z,13.14
2017-04-01T06:44:45.944Z,13.14
2017-04-01T06:45:26.393Z,13.03
2017-04-01T06:46:06.864Z,13.15
2017-04-01T06:48:04.467Z,13.17
2017-04-01T06:48:44.919Z,13.24
2017-04-01T06:49:25.409Z,13.32
2017-04-01T06:50:05.913Z,13.3
2017-04-01T06:50:46.432Z,13.37
2017-04-01T06:51:26.943Z,13.24
2017-04-01T06:52:07.422Z,13.2
2017-04-01T06:52:47.920Z,13.27
2017-04-01T06:53:28.414Z,13.36
2017-04-01T06:54:08.879Z,13.36
2017-04-01T06:54:49.356Z,13.4
2017-04-01T06:55:29.813Z,13.51
2017-04-01T06:56:10.238Z,13.38
2017-04-01T06:56:50.652Z,13.54
2017-04-01T06:57:31.109Z,13.62
2017-04-01T06:58:11.559Z,13.7
2017-04-01T06:58:52.022Z,13.55
2017-04-01T06:59:32.471Z,13.62
2017-04-01T07:01:25.023Z,13.73
2017-04-01T07:02:05.496Z,13.51
2017-04-01T07:02:45.981Z,13.62
2017-04-01T07:03:26.469Z,13.55
2017-04-01T07:04:06.962Z,13.63
2017-04-01T07:04:47.426Z,13.69
2017-04-01T07:05:27.895Z,13.79
2017-04-01T07:06:08.404Z,13.84
2017-04-01T07:06:48.906Z,13.96
2017-04-01T07:07:29.396Z,14.1
2017-04-01T07:08:09.902Z,14.24
2017-04-01T07:08:50.398Z,14.25
2017-04-01T07:09:30.882Z,14.14
2017-04-01T07:10:11.371Z,14.25
2017-04-01T07:10:51.871Z,14.1
2017-04-01T07:11:32.321Z,14.38
2017-04-01T07:12:12.828Z,14.37
2017-04-01T07:12:53.320Z,14.67
2017-04-01T07:13:33.798Z,14.74
2017-04-01T07:14:14.265Z,14.65
2017-04-01T07:14:54.705Z,14.43
2017-04-01T07:15:35.166Z,14.61
2017-04-01T07:16:15.641Z,14.87
2017-04-01T07:16:56.070Z,14.86
2017-04-01T07:17:36.502Z,15.06
2017-04-01T07:18:16.972Z,15.08
2017-04-01T07:18:57.473Z,15.06
2017-04-01T07:19:37.947Z,15.2
2017-04-01T07:20:18.411Z,15.2
2017-04-01T07:20:58.836Z,15.13
2017-04-01T07:21:39.280Z,15.15
2017-04-01T07:22:19.742Z,15.28
2017-04-01T07:23:00.216Z,15.21
2017-04-01T07:24:47.682Z,15.11
2017-04-01T07:25:28.121Z,15.06
2017-04-01T07:26:08.602Z,15.27
2017-04-01T07:26:49.104Z,15.41
2017-04-01T07:27:29.573Z,15.57
2017-04-01T07:28:10.076Z,15.59
2017-04-01T07:28:50.557Z,15.63
2017-04-01T07:29:31.054Z,15.89
2017-04-01T07:30:11.530Z,16.07
2017-04-01T07:30:52.008Z,16.37
2017-04-01T07:32:39.488Z,15.97
2017-04-01T07:33:19.968Z,16.03
2017-04-01T07:34:00.492Z,15.75
2017-04-01T07:34:41.012Z,15.89
2017-04-01T07:35:21.449Z,15.88
2017-04-01T07:36:01.914Z,15.79
2017-04-01T07:36:42.405Z,15.74
2017-04-01T07:37:22.874Z,15.93
2017-04-01T07:38:03.323Z,15.38
2017-04-01T07:38:43.784Z,15.45
2017-04-01T07:39:24.242Z,15.36
2017-04-01T07:41:01.608Z,15.92
2017-04-01T07:41:42.079Z,16.01
2017-04-01T07:42:22.547Z,16.09
2017-04-01T07:43:02.985Z,16.09
2017-04-01T07:43:43.473Z,15.78
2017-04-01T07:44:23.921Z,15.82
2017-04-01T07:46:21.544Z,16.11
2017-04-01T07:47:02.020Z,15.84
2017-04-01T07:47:42.500Z,15.66
2017-04-01T07:48:23.000Z,15.72
2017-04-01T07:49:03.465Z,15.57
2017-04-01T07:49:43.960Z,15.59
2017-04-01T07:50:24.440Z,15.7
2017-04-01T07:51:04.930Z,15.75
2017-04-01T07:51:45.449Z,15.86
2017-04-01T07:52:25.931Z,15.92
2017-04-01T07:53:06.398Z,15.93
2017-04-01T07:53:46.889Z,16.01
2017-04-01T07:54:27.368Z,16.01
2017-04-01T07:55:07.865Z,15.96
2017-04-01T07:55:48.410Z,15.88
2017-04-01T07:56:28.883Z,15.88
2017-04-01T07:57:09.402Z,15.57
2017-04-01T07:57:49.857Z,15.85
2017-04-01T07:58:30.339Z,15.75
2017-04-01T07:59:10.821Z,15.81
2017-04-01T07:59:51.299Z,15.59
2017-04-01T08:00:31.809Z,15.96
2017-04-01T08:01:12.313Z,16.11
2017-04-01T08:01:52.770Z,16.3
2017-04-01T08:02:33.244Z,16.37
2017-04-01T08:03:13.679Z,16.52
2017-04-01T08:03:54.170Z,16.93
2017-04-01T08:04:34.658Z,16.83
2017-04-01T08:05:15.166Z,17.03
2017-04-01T08:05:55.625Z,16.56
2017-04-01T08:06:36.091Z,16.48
2017-04-01T08:07:16.529Z,16.78
2017-04-01T08:07:56.972Z,16.85
2017-04-01T08:09:34.330Z,17.07
2017-04-01T08:10:14.801Z,16.65
2017-04-01T08:10:55.252Z,17.08
2017-04-01T08:12:47.868Z,17.36
2017-04-01T08:13:28.257Z,17.66
2017-04-01T08:14:08.779Z,17.89
2017-04-01T08:14:49.255Z,18.04
2017-04-01T08:15:29.729Z,17.51
2017-04-01T08:16:10.217Z,17.51
2017-04-01T08:16:50.690Z,17.62
2017-04-01T08:17:31.148Z,17.62
2017-04-01T08:18:11.619Z,17.67
2017-04-01T08:18:52.076Z,17.08
2017-04-01T08:19:32.536Z,17.46
2017-04-01T08:20:12.980Z,17.44
2017-04-01T08:20:53.415Z,17.29
2017-04-01T08:22:51.100Z,17.33
2017-04-01T08:23:31.555Z,17.29
2017-04-01T08:24:12.049Z,17.28
2017-04-01T08:24:52.515Z,17.07
2017-04-01T08:25:33.008Z,17.06
2017-04-01T08:26:13.491Z,16.96
2017-04-01T08:26:53.976Z,17.3
2017-04-01T08:27:34.454Z,17.25
2017-04-01T08:28:14.914Z,17.07
2017-04-01T08:28:55.424Z,17.11
2017-04-01T08:29:35.902Z,17.1
2017-04-01T08:31:13.343Z,17.13
2017-04-01T08:31:53.742Z,17.53
2017-04-01T08:32:34.267Z,17.67
2017-04-01T08:33:14.718Z,17.18
2017-04-01T08:33:55.169Z,17.25
2017-04-01T08:34:35.608Z,17.43
2017-04-01T08:35:16.043Z,17.53
2017-04-01T08:35:56.486Z,17.82
2017-04-01T08:36:36.962Z,18.1
2017-04-01T08:37:17.405Z,18.03
2017-04-01T08:39:15.133Z,18.31
2017-04-01T08:39:55.516Z,18.15
2017-04-01T08:41:43.006Z,18.25
2017-04-01T08:42:23.510Z,18.03
2017-04-01T08:43:04.008Z,17.84
2017-04-01T08:43:44.487Z,18.02
2017-04-01T08:44:24.935Z,17.89
2017-04-01T08:45:05.421Z,17.81
2017-04-01T08:45:45.916Z,18.22
2017-04-01T08:46:26.358Z,18.18
2017-04-01T08:47:06.824Z,18.21
2017-04-01T08:47:47.269Z,18.22
2017-04-01T08:48:27.731Z,17.92
2017-04-01T08:50:15.237Z,18.24
2017-04-01T08:50:55.744Z,17.89
2017-04-01T08:51:36.245Z,18.12
2017-04-01T08:53:49.063Z,18.33
2017-04-01T08:54:29.548Z,18.19
2017-04-01T08:55:10.063Z,18.17
2017-04-01T08:55:50.559Z,18.07
2017-04-01T08:56:31.029Z,18.34
2017-04-01T08:57:11.509Z,18.07
2017-04-01T08:57:51.958Z,17.53
2017-04-01T08:58:32.418Z,17.62
2017-04-01T08:59:12.886Z,17.57
2017-04-01T08:59:53.313Z,18.1
2017-04-01T09:00:33.763Z,18.27
2017-04-01T09:01:14.194Z,18.37
2017-04-01T09:01:54.651Z,17.57
2017-04-01T09:03:32.144Z,17.71
2017-04-01T09:04:12.574Z,18.15
2017-04-01T09:04:53.051Z,18.5
2017-04-01T09:05:33.516Z,18
2017-04-01T09:07:21.017Z,18.58
2017-04-01T09:08:01.452Z,18.42
2017-04-01T09:08:41.926Z,18.1
2017-04-01T09:09:22.434Z,18.19
2017-04-01T09:10:02.928Z,17.89
2017-04-01T09:10:43.409Z,18.1
2017-04-01T09:11:23.877Z,18.61
2017-04-01T09:13:21.593Z,18.9
2017-04-01T09:14:02.078Z,18.06
2017-04-01T09:14:42.530Z,18.15
2017-04-01T09:15:22.984Z,18.12
2017-04-01T09:16:03.427Z,18.44
2017-04-01T09:16:43.876Z,18.84
2017-04-01T09:18:31.355Z,18.8
2017-04-01T09:19:11.835Z,18.9
2017-04-01T09:19:52.308Z,18.92
2017-04-01T09:20:32.795Z,19.13
2017-04-01T09:21:13.284Z,19.47
2017-04-01T09:21:53.778Z,19.17
2017-04-01T09:24:06.491Z,19.38
2017-04-01T09:24:47.003Z,19.39
2017-04-01T09:25:27.498Z,19.42
2017-04-01T09:26:07.921Z,19.78
2017-04-01T09:26:48.449Z,18.61
2017-04-01T09:27:28.897Z,18.58
2017-04-01T09:28:09.345Z,19.05
2017-04-01T09:28:49.794Z,18.99
2017-04-01T09:29:30.252Z,18.94
2017-04-01T09:30:10.709Z,19.2
2017-04-01T09:30:51.175Z,19.43
2017-04-01T09:32:28.629Z,19.63
2017-04-01T09:33:09.074Z,19.57
2017-04-01T09:33:49.536Z,19.05
2017-04-01T09:34:29.998Z,19.05
2017-04-01T09:35:10.444Z,18.82
2017-04-01T09:35:50.924Z,18.4
2017-04-01T09:36:31.360Z,18.74
2017-04-01T09:37:11.825Z,18.83
2017-04-01T09:37:52.327Z,19.08
2017-04-01T09:38:32.733Z,19.14
2017-04-01T09:39:13.189Z,18.67
2017-04-01T09:39:53.642Z,18.55
2017-04-01T09:40:34.127Z,18.59
2017-04-01T09:41:14.612Z,18.9
2017-04-01T09:41:55.078Z,18.47
2017-04-01T09:42:35.526Z,18.62
2017-04-01T09:43:16.010Z,18.54
2017-04-01T09:43:56.453Z,18.55
2017-04-01T09:44:36.897Z,18.92
2017-04-01T09:46:14.265Z,19.32
2017-04-01T09:46:54.736Z,19.53
2017-04-01T09:47:35.215Z,19.5
2017-04-01T09:48:15.733Z,19.29
2017-04-01T09:48:56.235Z,19.28
2017-04-01T09:49:36.721Z,19.15
2017-04-01T09:50:17.171Z,19.43
2017-04-01T09:52:29.898Z,19.31
2017-04-01T09:53:10.354Z,19.36
2017-04-01T09:53:50.848Z,19.75
2017-04-01T09:54:31.293Z,19.94
2017-04-01T09:56:18.795Z,20.12
2017-04-01T09:56:59.251Z,19.83